Time;durP1;ratioP1;P1;durP2;ratioP2;P2;SDS_P1;SDS_P2;PMS_P1;PMS_P2;Temp;Humidity;BMP_temperature;BMP_pressure;BME280_temperature;BME280_humidity;BME280_pressure;Samples;Min_cycle;Max_cycle;Signal;HPM_P1;HPM_P2
2022/01/08 00:01:56;;;;;;;19.67;11.20;;;5.40;99.90;;;;;;5083980;28;20029;-77
2022/01/08 00:04:22;;;;;;;23.35;10.68;;;5.30;99.90;;;;;;5085571;28;20013;-77
2022/01/08 00:06:47;;;;;;;21.52;11.02;;;5.30;99.90;;;;;;5082744;28;20032;-77
2022/01/08 00:09:13;;;;;;;26.77;12.55;;;5.30;99.90;;;;;;5082240;28;20055;-77
2022/01/08 00:11:42;;;;;;;20.08;11.95;;;5.30;99.90;;;;;;5081775;28;20039;-77
2022/01/08 00:14:10;;;;;;;23.20;12.50;;;5.30;99.90;;;;;;5080572;28;20059;-75
2022/01/08 00:16:37;;;;;;;20.45;12.23;;;5.20;99.90;;;;;;5082381;28;20155;-77
2022/01/08 00:19:04;;;;;;;27.55;13.40;;;5.20;99.90;;;;;;5082072;28;20036;-76
2022/01/08 00:21:30;;;;;;;25.95;13.60;;;5.20;99.90;;;;;;5082107;28;20023;-76
2022/01/08 00:23:56;;;;;;;22.70;13.70;;;5.20;99.90;;;;;;5080817;28;20388;-77
2022/01/08 00:26:21;;;;;;;25.13;14.50;;;5.20;99.90;;;;;;5083518;28;20391;-77
2022/01/08 00:28:49;;;;;;;28.55;13.00;;;5.10;99.90;;;;;;5081200;28;20028;-77
2022/01/08 00:31:15;;;;;;;26.88;14.13;;;5.10;99.90;;;;;;5083267;28;20035;-77
2022/01/08 00:33:41;;;;;;;24.05;14.13;;;5.10;99.90;;;;;;5078304;28;20098;-77
2022/01/08 00:36:07;;;;;;;23.75;14.85;;;5.10;99.90;;;;;;5081861;28;20028;-76
2022/01/08 00:38:33;;;;;;;21.75;13.18;;;5.00;99.90;;;;;;5082050;28;20376;-76
2022/01/08 00:40:59;;;;;;;26.02;13.98;;;5.00;99.90;;;;;;5081369;28;20016;-76
2022/01/08 00:43:25;;;;;;;23.85;13.63;;;4.90;99.90;;;;;;5082535;28;20119;-76
2022/01/08 00:45:51;;;;;;;28.80;15.02;;;4.90;99.90;;;;;;5082131;28;20027;-77
2022/01/08 00:48:16;;;;;;;27.10;13.70;;;4.90;99.90;;;;;;5092932;28;20119;-76
2022/01/08 00:50:42;;;;;;;23.92;13.40;;;4.90;99.90;;;;;;5074330;28;20059;-76
2022/01/08 00:53:08;;;;;;;22.42;13.55;;;4.90;99.90;;;;;;5072938;28;20060;-76
2022/01/08 00:55:34;;;;;;;23.50;13.70;;;5.00;99.90;;;;;;5076626;28;20032;-76
2022/01/08 00:57:59;;;;;;;30.02;13.63;;;5.00;99.90;;;;;;5083471;28;20373;-77
2022/01/08 01:00:25;;;;;;;24.60;13.27;;;5.00;99.90;;;;;;5083341;28;20028;-76
2022/01/08 01:02:53;;;;;;;23.40;13.48;;;5.00;99.90;;;;;;5083071;28;20020;-77
2022/01/08 01:05:19;;;;;;;22.58;12.18;;;5.00;99.90;;;;;;5078226;28;20034;-77
2022/01/08 01:07:46;;;;;;;25.95;12.40;;;4.90;99.90;;;;;;5083102;28;20035;-76
2022/01/08 01:10:12;;;;;;;21.85;12.45;;;4.90;99.90;;;;;;5079059;28;20111;-77
2022/01/08 01:12:37;;;;;;;30.48;12.68;;;4.90;99.90;;;;;;5081813;28;20083;-77
2022/01/08 01:15:05;;;;;;;23.02;11.75;;;4.90;99.90;;;;;;5082404;28;20120;-77
2022/01/08 01:17:30;;;;;;;24.70;13.35;;;4.80;99.90;;;;;;5079277;28;20380;-76
2022/01/08 01:19:56;;;;;;;20.30;13.80;;;4.70;99.90;;;;;;5083733;28;20024;-76
2022/01/08 01:22:26;;;;;;;24.63;12.10;;;4.80;99.90;;;;;;5081724;28;20697;-77
2022/01/08 01:25:00;;;;;;;21.85;12.02;;;4.80;99.90;;;;;;5081041;28;20051;-77
2022/01/08 01:30:15;;;;;;;20.35;11.68;;;4.80;99.90;;;;;;5078400;28;20031;-76
2022/01/08 01:49:15;;;;;;;22.80;12.55;;;4.70;99.90;;;;;;5079497;28;20132;-79
2022/01/08 01:51:41;;;;;;;26.92;12.45;;;4.70;99.90;;;;;;5080272;28;20103;-79
2022/01/08 01:54:07;;;;;;;32.08;13.98;;;4.70;99.90;;;;;;5085174;28;20030;-77
2022/01/08 01:56:33;;;;;;;26.92;13.18;;;4.70;99.90;;;;;;5083384;28;20468;-77
2022/01/08 01:58:59;;;;;;;27.48;13.57;;;4.70;99.90;;;;;;5080886;28;20657;-79
2022/01/08 02:01:24;;;;;;;24.90;12.50;;;4.70;99.90;;;;;;5081787;28;20027;-79
2022/01/08 02:03:50;;;;;;;21.67;11.63;;;4.60;99.90;;;;;;5077011;28;20040;-78
2022/01/08 02:06:16;;;;;;;24.15;12.05;;;4.70;99.90;;;;;;5081189;28;20032;-79
2022/01/08 02:08:42;;;;;;;24.23;11.98;;;4.70;99.90;;;;;;5082254;28;20031;-78
2022/01/08 02:11:08;;;;;;;28.52;11.88;;;4.70;99.90;;;;;;5079484;28;20030;-79
2022/01/08 02:13:35;;;;;;;26.83;12.20;;;4.70;99.90;;;;;;5080530;28;20388;-78
2022/01/08 02:16:02;;;;;;;23.98;12.80;;;4.70;99.90;;;;;;5080980;28;20029;-78
2022/01/08 02:18:28;;;;;;;24.58;12.77;;;4.70;99.90;;;;;;5079962;28;20044;-78
2022/01/08 02:20:59;;;;;;;22.50;11.98;;;4.60;99.90;;;;;;5081875;28;20024;-77
2022/01/08 02:23:26;;;;;;;24.25;12.77;;;4.60;99.90;;;;;;5081253;28;20383;-78
2022/01/08 02:26:01;;;;;;;24.92;12.57;;;4.60;99.90;;;;;;5080715;28;20390;-77
2022/01/08 02:28:27;;;;;;;25.45;12.95;;;4.40;99.90;;;;;;5079972;28;20028;-78
2022/01/08 02:30:52;;;;;;;28.05;12.27;;;4.50;99.90;;;;;;5080137;28;20017;-78
2022/01/08 02:33:24;;;;;;;23.52;12.98;;;4.50;99.90;;;;;;5082462;28;20520;-78
2022/01/08 02:35:50;;;;;;;30.30;13.93;;;4.40;99.90;;;;;;5079274;28;20411;-77
2022/01/08 02:38:15;;;;;;;23.15;12.23;;;4.30;99.90;;;;;;5081213;28;20028;-78
2022/01/08 02:40:50;;;;;;;25.83;13.55;;;4.30;99.90;;;;;;5081937;28;20016;-78
2022/01/08 02:43:15;;;;;;;26.70;13.65;;;4.30;99.90;;;;;;5078927;28;20029;-78
2022/01/08 02:45:41;;;;;;;27.55;14.50;;;4.30;99.90;;;;;;5078455;28;20036;-79
2022/01/08 02:48:09;;;;;;;25.48;14.00;;;4.30;99.90;;;;;;5081704;28;20039;-78
2022/01/08 02:50:34;;;;;;;27.10;14.38;;;4.20;99.90;;;;;;5080596;28;20029;-78
2022/01/08 02:53:00;;;;;;;24.58;13.32;;;4.20;99.90;;;;;;5084327;28;20111;-78
2022/01/08 02:55:26;;;;;;;29.90;13.63;;;4.10;99.90;;;;;;5081705;28;20360;-78
2022/01/08 02:57:51;;;;;;;26.67;13.95;;;4.10;99.90;;;;;;5081413;28;20492;-77
2022/01/08 03:00:18;;;;;;;26.33;13.85;;;4.10;99.90;;;;;;5082994;28;20046;-78
2022/01/08 03:02:50;;;;;;;29.10;14.70;;;4.10;99.90;;;;;;5085391;28;20039;-78
2022/01/08 03:05:16;;;;;;;28.45;13.30;;;4.10;99.90;;;;;;5082937;28;20396;-78
2022/01/08 03:07:43;;;;;;;27.30;13.45;;;4.10;99.90;;;;;;5083635;28;20494;-78
2022/01/08 03:10:12;;;;;;;28.00;12.40;;;4.10;99.90;;;;;;5083215;28;20150;-79
2022/01/08 03:12:41;;;;;;;22.73;12.85;;;4.10;99.90;;;;;;5084883;28;20020;-78
2022/01/08 03:15:11;;;;;;;33.47;14.50;;;4.00;99.90;;;;;;5085023;28;20095;-78
2022/01/08 03:17:39;;;;;;;25.90;11.85;;;4.00;99.90;;;;;;5084219;28;20017;-77
2022/01/08 03:20:10;;;;;;;25.50;12.95;;;3.90;99.90;;;;;;5082859;28;20028;-77
2022/01/08 03:22:37;;;;;;;24.63;12.52;;;4.00;99.90;;;;;;5082889;28;20030;-78
2022/01/08 03:25:05;;;;;;;32.83;14.55;;;4.00;99.90;;;;;;5084773;28;20075;-77
2022/01/08 03:27:31;;;;;;;24.38;12.65;;;4.10;99.90;;;;;;5082473;28;20127;-78
2022/01/08 03:29:57;;;;;;;24.83;13.60;;;4.10;99.90;;;;;;5082575;28;20097;-77
2022/01/08 03:32:23;;;;;;;23.15;12.52;;;4.10;99.90;;;;;;5083157;28;20520;-77
2022/01/08 03:34:49;;;;;;;23.02;12.38;;;4.10;99.90;;;;;;5084947;28;20042;-78
2022/01/08 03:37:14;;;;;;;31.77;12.68;;;4.10;99.90;;;;;;5083494;28;20044;-77
2022/01/08 03:39:41;;;;;;;20.40;12.13;;;4.20;99.90;;;;;;5083338;28;20074;-77
2022/01/08 03:42:07;;;;;;;22.45;12.32;;;4.10;99.90;;;;;;5085676;28;20046;-77
2022/01/08 03:44:33;;;;;;;25.48;12.73;;;4.10;99.90;;;;;;5073795;28;20029;-78
2022/01/08 03:47:21;;;;;;;26.27;11.82;;;4.10;99.90;;;;;;5073822;28;20548;-78
2022/01/08 03:49:44;;;;;;;25.45;12.50;;;4.10;99.90;;;;;;5073562;28;20075;-77
2022/01/08 03:52:12;;;;;;;23.70;12.60;;;4.10;99.90;;;;;;5073819;28;20024;-78
2022/01/08 03:54:38;;;;;;;25.48;12.60;;;4.20;99.90;;;;;;5072710;28;20059;-77
2022/01/08 03:57:04;;;;;;;22.20;11.30;;;4.20;99.90;;;;;;5085972;28;20048;-77
2022/01/08 03:59:30;;;;;;;26.33;12.25;;;4.10;99.90;;;;;;5073405;28;20032;-77
2022/01/08 04:01:56;;;;;;;22.92;13.00;;;4.20;99.90;;;;;;5073669;28;20028;-77
2022/01/08 04:04:21;;;;;;;25.40;12.13;;;4.10;99.90;;;;;;5073450;28;20082;-76
2022/01/08 04:06:47;;;;;;;21.90;11.70;;;4.10;99.90;;;;;;5092980;28;20480;-77
2022/01/08 04:09:13;;;;;;;30.05;12.90;;;4.10;99.90;;;;;;5092950;28;20062;-77
2022/01/08 04:11:40;;;;;;;31.67;11.50;;;4.00;99.90;;;;;;5093784;28;20556;-77
2022/01/08 04:14:05;;;;;;;22.45;11.27;;;4.00;99.90;;;;;;5080296;28;20074;-78
2022/01/08 04:16:34;;;;;;;30.42;12.63;;;4.00;99.90;;;;;;5073530;28;20108;-77
2022/01/08 04:19:00;;;;;;;27.30;12.40;;;4.00;99.90;;;;;;5074880;28;20029;-77
2022/01/08 04:23:53;;;;;;;18.50;10.68;;;3.90;99.90;;;;;;5072537;28;20060;-77
2022/01/08 04:26:21;;;;;;;23.40;10.32;;;3.90;99.90;;;;;;5073046;28;20021;-77
2022/01/08 04:29:13;;;;;;;16.88;10.25;;;3.90;99.90;;;;;;5073124;28;20509;-75
2022/01/08 04:31:39;;;;;;;22.60;10.13;;;3.90;99.90;;;;;;5073281;28;20449;-77
2022/01/08 04:34:05;;;;;;;22.85;10.55;;;3.90;99.90;;;;;;5088799;28;20121;-77
2022/01/08 04:36:30;;;;;;;19.35;9.32;;;3.90;99.90;;;;;;5093376;28;20027;-77
2022/01/08 04:38:57;;;;;;;19.10;10.60;;;3.90;99.90;;;;;;5093178;28;20061;-76
2022/01/08 04:41:23;;;;;;;17.15;9.55;;;4.00;99.90;;;;;;5092184;28;20024;-76
2022/01/08 04:43:48;;;;;;;18.40;10.02;;;3.90;99.90;;;;;;5092559;28;20040;-76
2022/01/08 04:46:14;;;;;;;29.48;10.95;;;3.80;99.90;;;;;;5093041;28;20035;-76
2022/01/08 04:48:40;;;;;;;24.98;11.45;;;3.80;99.90;;;;;;5093093;28;20028;-77
2022/01/08 04:51:06;;;;;;;30.90;12.15;;;3.90;99.90;;;;;;5093086;28;20024;-77
2022/01/08 04:53:31;;;;;;;18.95;11.00;;;3.80;99.90;;;;;;5102413;28;20064;-77
2022/01/08 04:55:57;;;;;;;19.42;9.32;;;3.80;99.90;;;;;;5103203;28;20024;-77
2022/01/08 04:58:23;;;;;;;20.05;9.77;;;3.90;99.90;;;;;;5072348;28;20100;-77
2022/01/08 05:00:48;;;;;;;19.52;9.07;;;3.90;99.90;;;;;;5072461;28;20020;-77
2022/01/08 05:03:14;;;;;;;19.40;9.88;;;3.90;99.90;;;;;;5071125;28;20094;-77
2022/01/08 05:05:39;;;;;;;23.20;10.35;;;3.90;99.90;;;;;;5072249;28;20391;-78
2022/01/08 05:08:05;;;;;;;24.75;9.63;;;3.80;99.90;;;;;;5070666;28;20037;-76
2022/01/08 05:10:33;;;;;;;17.73;10.07;;;3.70;99.90;;;;;;5071899;28;20024;-77
2022/01/08 05:13:04;;;;;;;21.10;9.57;;;3.80;99.90;;;;;;5075452;28;20040;-77
2022/01/08 05:15:31;;;;;;;33.83;11.77;;;3.80;99.90;;;;;;5092213;28;20089;-77
2022/01/08 05:17:56;;;;;;;24.35;10.50;;;3.70;99.90;;;;;;5092524;28;20042;-77
2022/01/08 05:20:22;;;;;;;24.83;10.90;;;3.80;99.90;;;;;;5091202;28;20027;-77
2022/01/08 05:25:15;;;;;;;24.52;10.38;;;3.80;99.90;;;;;;5092307;28;20032;-76
2022/01/08 05:27:42;;;;;;;18.27;8.77;;;3.70;99.90;;;;;;5086194;28;20081;-77
2022/01/08 05:30:09;;;;;;;25.30;9.70;;;3.80;99.90;;;;;;5072109;28;20033;-77
2022/01/08 05:32:35;;;;;;;22.13;9.88;;;3.80;99.90;;;;;;5071249;28;20485;-77
2022/01/08 05:35:00;;;;;;;21.02;9.55;;;3.70;99.90;;;;;;5071865;28;20066;-77
2022/01/08 05:37:26;;;;;;;22.13;9.32;;;3.70;99.90;;;;;;5072139;28;20484;-77
2022/01/08 05:39:53;;;;;;;19.20;9.68;;;3.70;99.90;;;;;;5070412;28;20024;-77
2022/01/08 05:42:19;;;;;;;23.27;10.38;;;3.70;99.90;;;;;;5079752;28;20059;-77
2022/01/08 05:44:45;;;;;;;27.35;10.10;;;3.70;99.90;;;;;;5091364;28;20487;-77
2022/01/08 05:47:11;;;;;;;41.85;11.13;;;3.70;99.90;;;;;;5091778;28;20036;-77
2022/01/08 05:49:37;;;;;;;20.00;10.02;;;3.70;99.90;;;;;;5084332;28;20028;-77
2022/01/08 05:52:03;;;;;;;26.45;11.98;;;3.80;99.90;;;;;;5071950;28;20499;-74
2022/01/08 05:54:28;;;;;;;23.20;11.73;;;3.70;99.90;;;;;;5070876;28;20017;-77
2022/01/08 05:56:55;;;;;;;25.80;12.73;;;3.70;99.90;;;;;;5085830;28;20031;-77
2022/01/08 05:59:22;;;;;;;32.80;12.75;;;3.80;99.90;;;;;;5092007;28;20020;-77
2022/01/08 06:01:48;;;;;;;27.27;13.52;;;3.70;99.90;;;;;;5091535;28;20468;-77
2022/01/08 06:04:14;;;;;;;30.30;13.43;;;3.80;99.90;;;;;;5091659;28;20503;-77
2022/01/08 06:06:40;;;;;;;28.48;14.05;;;3.80;99.90;;;;;;5091899;28;20024;-77
2022/01/08 06:09:06;;;;;;;33.05;15.20;;;3.80;99.90;;;;;;5091664;28;20404;-76
2022/01/08 06:11:33;;;;;;;29.60;14.15;;;3.70;99.90;;;;;;5091914;28;20028;-75
2022/01/08 06:13:58;;;;;;;31.90;16.33;;;3.60;99.90;;;;;;5096351;28;20471;-77
2022/01/08 06:16:24;;;;;;;34.95;17.33;;;3.60;99.90;;;;;;5112436;28;20016;-76
2022/01/08 06:18:49;;;;;;;31.10;16.48;;;3.70;99.90;;;;;;5102359;28;20047;-76
2022/01/08 06:21:15;;;;;;;34.92;15.63;;;3.70;99.90;;;;;;5076656;28;20616;-76
2022/01/08 06:23:41;;;;;;;31.38;15.88;;;3.70;99.90;;;;;;5070398;28;20028;-76
2022/01/08 06:26:08;;;;;;;34.97;15.13;;;3.70;99.90;;;;;;5091478;28;20050;-77
2022/01/08 06:28:34;;;;;;;36.25;16.27;;;3.60;99.90;;;;;;5076585;28;20060;-77
2022/01/08 06:31:00;;;;;;;39.08;18.52;;;3.60;99.90;;;;;;5071135;28;20021;-77
2022/01/08 06:33:26;;;;;;;37.97;18.67;;;3.70;99.90;;;;;;5073699;28;20024;-76
2022/01/08 06:35:51;;;;;;;32.75;17.38;;;3.50;99.90;;;;;;5090952;28;20033;-76
2022/01/08 06:38:18;;;;;;;41.33;18.08;;;3.60;99.90;;;;;;5074756;28;20063;-76
2022/01/08 06:40:44;;;;;;;38.53;18.75;;;3.60;99.90;;;;;;5078931;28;20126;-76
2022/01/08 06:43:10;;;;;;;38.30;18.33;;;3.70;99.90;;;;;;5076820;28;20085;-77
2022/01/08 06:45:36;;;;;;;39.38;18.77;;;3.70;99.90;;;;;;5095055;28;20020;-77
2022/01/08 06:48:01;;;;;;;39.97;17.02;;;3.70;99.90;;;;;;5093946;28;20024;-77
2022/01/08 06:50:28;;;;;;;34.88;16.50;;;3.70;99.90;;;;;;5094983;28;20103;-76
2022/01/08 06:52:55;;;;;;;42.45;15.93;;;3.80;99.90;;;;;;5094249;28;20028;-77
2022/01/08 06:55:21;;;;;;;31.27;15.32;;;3.70;99.90;;;;;;5093909;28;20020;-77
2022/01/08 06:57:46;;;;;;;38.08;16.40;;;3.70;99.90;;;;;;5089438;28;20027;-77
2022/01/08 07:00:14;;;;;;;29.52;14.20;;;3.70;99.90;;;;;;5075256;28;20119;-76
2022/01/08 07:02:39;;;;;;;27.73;15.45;;;3.70;99.90;;;;;;5093854;28;20480;-75
2022/01/08 07:05:05;;;;;;;32.17;15.48;;;3.70;99.90;;;;;;5095663;28;20038;-77
2022/01/08 07:07:31;;;;;;;29.48;15.05;;;3.70;99.90;;;;;;5091746;28;20442;-76
2022/01/08 07:09:56;;;;;;;38.92;16.17;;;3.70;99.90;;;;;;5077857;28;20055;-77
2022/01/08 07:12:22;;;;;;;34.38;17.25;;;3.70;99.90;;;;;;5075282;28;20037;-77
2022/01/08 07:14:48;;;;;;;33.38;17.13;;;3.80;99.90;;;;;;5073956;28;20025;-77
2022/01/08 07:17:13;;;;;;;41.17;19.45;;;3.70;99.90;;;;;;5074840;28;20048;-77
2022/01/08 07:19:39;;;;;;;42.70;18.98;;;3.70;99.90;;;;;;5074650;28;20540;-77
2022/01/08 07:22:05;;;;;;;32.67;17.95;;;3.60;99.90;;;;;;5073883;28;20021;-78
2022/01/08 07:24:30;;;;;;;35.78;17.55;;;3.60;99.90;;;;;;5074466;28;20031;-77
2022/01/08 07:26:56;;;;;;;42.85;19.67;;;3.60;99.90;;;;;;5074246;28;20525;-77
2022/01/08 07:29:22;;;;;;;39.92;19.13;;;3.60;99.90;;;;;;5080604;28;20383;-77
2022/01/08 07:31:47;;;;;;;34.63;18.95;;;3.60;99.90;;;;;;5095595;28;20036;-77
2022/01/08 07:34:13;;;;;;;40.40;17.75;;;3.60;99.90;;;;;;5089617;28;20032;-77
2022/01/08 07:36:39;;;;;;;42.50;17.50;;;3.50;99.90;;;;;;5074795;28;20465;-77
2022/01/08 07:39:04;;;;;;;40.33;18.75;;;3.50;99.90;;;;;;5075090;28;20028;-77
2022/01/08 07:41:30;;;;;;;33.40;16.15;;;3.60;99.90;;;;;;5075226;28;20465;-76
2022/01/08 07:43:56;;;;;;;39.05;18.02;;;3.70;99.90;;;;;;5073726;28;20024;-77
2022/01/08 07:46:21;;;;;;;41.60;19.80;;;3.70;99.90;;;;;;5075034;28;20028;-77
2022/01/08 07:48:47;;;;;;;31.42;16.65;;;3.60;99.90;;;;;;5093844;28;20473;-76
2022/01/08 07:51:13;;;;;;;36.65;17.63;;;3.70;99.90;;;;;;5094683;28;20035;-77
2022/01/08 07:53:39;;;;;;;36.47;18.23;;;3.60;99.90;;;;;;5094901;28;20027;-77
2022/01/08 07:56:05;;;;;;;34.28;18.83;;;3.60;99.90;;;;;;5094261;28;20032;-77
2022/01/08 07:58:31;;;;;;;38.72;20.30;;;3.70;99.90;;;;;;5095037;28;20089;-77
2022/01/08 08:00:57;;;;;;;43.20;20.15;;;3.70;99.90;;;;;;5086841;28;20480;-77
2022/01/08 08:03:23;;;;;;;42.83;20.33;;;3.70;99.90;;;;;;5090288;28;20082;-76
2022/01/08 08:05:49;;;;;;;50.90;20.77;;;3.70;99.90;;;;;;5075679;28;20041;-76
2022/01/08 08:08:19;;;;;;;54.28;20.98;;;3.40;99.90;;;;;;5073493;28;20048;-78
2022/01/08 08:10:48;;;;;;;39.88;20.50;;;3.50;99.90;;;;;;5089178;28;20196;-77
2022/01/08 08:13:18;;;;;;;43.95;22.02;;;3.50;99.90;;;;;;5087714;28;20365;-76
2022/01/08 08:15:44;;;;;;;49.58;23.42;;;3.50;99.90;;;;;;5094484;28;20103;-77
2022/01/08 08:18:11;;;;;;;46.70;22.98;;;3.40;99.90;;;;;;5086722;28;20035;-77
2022/01/08 08:20:38;;;;;;;52.65;25.08;;;3.50;99.90;;;;;;5077894;28;20075;-77
2022/01/08 08:23:03;;;;;;;55.00;27.95;;;3.50;99.90;;;;;;5078231;28;20062;-77
2022/01/08 08:25:31;;;;;;;48.95;25.73;;;3.70;99.90;;;;;;5084715;28;20024;-77
2022/01/08 08:27:56;;;;;;;53.10;26.80;;;3.60;99.90;;;;;;5082184;28;20069;-78
2022/01/08 08:30:22;;;;;;;64.93;31.05;;;3.50;99.90;;;;;;5084424;28;20419;-76
2022/01/08 08:32:48;;;;;;;64.18;30.05;;;3.50;99.90;;;;;;5082715;28;20589;-77
2022/01/08 08:35:14;;;;;;;62.95;30.08;;;3.50;99.90;;;;;;5083707;28;20056;-77
2022/01/08 08:37:40;;;;;;;66.25;29.42;;;3.50;99.90;;;;;;5083258;28;20468;-77
2022/01/08 08:40:08;;;;;;;70.00;31.73;;;3.60;99.90;;;;;;5079528;28;20036;-77
2022/01/08 08:42:34;;;;;;;81.88;34.10;;;3.60;99.90;;;;;;5084201;28;20028;-77
2022/01/08 08:45:00;;;;;;;68.60;32.42;;;3.70;99.90;;;;;;5081393;28;20484;-78
2022/01/08 08:47:25;;;;;;;62.25;31.52;;;3.70;99.90;;;;;;5080618;28;20036;-78
2022/01/08 08:49:51;;;;;;;69.55;32.42;;;3.70;99.90;;;;;;5082879;28;20565;-78
2022/01/08 08:52:17;;;;;;;62.83;30.83;;;3.80;99.90;;;;;;5081716;28;20026;-78
2022/01/08 08:54:43;;;;;;;65.00;31.55;;;3.80;99.90;;;;;;5079758;28;20024;-78
2022/01/08 08:57:10;;;;;;;66.80;31.95;;;3.90;99.90;;;;;;5082174;28;20070;-77
2022/01/08 08:59:36;;;;;;;75.38;29.83;;;3.80;99.90;;;;;;5081824;28;20020;-77
2022/01/08 09:02:03;;;;;;;64.93;31.05;;;3.90;99.90;;;;;;5083289;28;20386;-78
2022/01/08 09:04:29;;;;;;;64.88;30.83;;;3.90;99.90;;;;;;5081450;28;20035;-78
2022/01/08 09:06:57;;;;;;;64.22;29.52;;;4.00;99.90;;;;;;5084760;28;20024;-77
2022/01/08 09:09:23;;;;;;;66.53;29.50;;;3.90;99.90;;;;;;5081283;28;20078;-77
2022/01/08 09:11:49;;;;;;;59.35;27.85;;;3.90;99.90;;;;;;5082703;28;20468;-78
2022/01/08 09:14:15;;;;;;;58.58;27.75;;;3.90;99.90;;;;;;5083807;28;20024;-77
2022/01/08 09:16:51;;;;;;;62.30;27.55;;;3.90;99.90;;;;;;5081213;28;20500;-77
2022/01/08 09:19:18;;;;;;;56.55;26.27;;;4.00;99.90;;;;;;5078412;28;20055;-78
2022/01/08 09:21:44;;;;;;;58.92;26.23;;;4.00;99.90;;;;;;5081306;28;20017;-78
2022/01/08 09:24:10;;;;;;;72.93;27.35;;;4.00;99.90;;;;;;5082891;28;20024;-77
2022/01/08 09:26:36;;;;;;;63.33;26.70;;;4.10;99.90;;;;;;5080312;28;20115;-77
2022/01/08 09:29:02;;;;;;;50.03;24.65;;;4.10;99.90;;;;;;5080773;28;20153;-79
2022/01/08 09:31:28;;;;;;;58.00;25.08;;;4.20;99.90;;;;;;5081628;28;20009;-78
2022/01/08 09:33:53;;;;;;;52.33;24.00;;;4.30;99.90;;;;;;5083085;28;20043;-77
2022/01/08 09:36:19;;;;;;;48.92;24.23;;;4.30;99.90;;;;;;5081537;28;20021;-77
2022/01/08 09:38:45;;;;;;;52.60;22.60;;;4.30;99.90;;;;;;5082988;28;20022;-77
2022/01/08 09:41:10;;;;;;;45.88;21.73;;;4.30;99.90;;;;;;5089899;28;20024;-76
2022/01/08 09:43:37;;;;;;;49.63;21.10;;;4.30;99.90;;;;;;5092918;28;20456;-75
2022/01/08 09:46:03;;;;;;;46.50;23.08;;;4.30;99.90;;;;;;5092075;28;20024;-75
2022/01/08 09:48:29;;;;;;;54.88;25.65;;;4.40;99.90;;;;;;5074955;28;20068;-76
2022/01/08 09:50:54;;;;;;;45.00;21.20;;;4.30;99.90;;;;;;5070290;28;20059;-76
2022/01/08 09:53:21;;;;;;;45.00;21.05;;;4.40;99.90;;;;;;5079688;28;20396;-76
2022/01/08 09:55:47;;;;;;;47.38;21.95;;;4.50;99.90;;;;;;5087099;28;20432;-75
2022/01/08 09:58:13;;;;;;;45.47;22.27;;;4.50;99.90;;;;;;5086988;28;20056;-76
2022/01/08 10:00:39;;;;;;;46.90;22.02;;;4.50;99.90;;;;;;5086554;28;20064;-75
2022/01/08 10:03:19;;;;;;;43.55;21.08;;;4.50;99.90;;;;;;5083585;28;20496;-77
2022/01/08 10:05:46;;;;;;;47.95;21.00;;;4.50;99.90;;;;;;5091453;28;20530;-77
2022/01/08 10:08:14;;;;;;;51.13;22.23;;;4.60;99.90;;;;;;5093776;28;20048;-78
2022/01/08 10:10:39;;;;;;;116.30;25.83;;;4.70;99.90;;;;;;5082495;28;20025;-78
2022/01/08 10:13:05;;;;;;;37.97;18.35;;;4.80;99.90;;;;;;5074302;28;20420;-77
2022/01/08 10:18:36;;;;;;;45.08;19.60;;;4.70;99.90;;;;;;5086962;28;20502;-77
2022/01/08 10:21:14;;;;;;;41.72;17.88;;;4.80;99.90;;;;;;5091425;28;20024;-76
2022/01/08 10:23:43;;;;;;;36.50;16.42;;;4.70;99.90;;;;;;5084647;28;20038;-77
2022/01/08 10:26:13;;;;;;;36.90;16.38;;;4.60;99.90;;;;;;5083276;28;20031;-76
2022/01/08 10:28:50;;;;;;;46.22;16.58;;;4.80;99.90;;;;;;5082164;28;20094;-76
2022/01/08 10:31:25;;;;;;;32.65;16.88;;;4.80;99.90;;;;;;5081192;28;20040;-75
2022/01/08 10:34:06;;;;;;;38.95;16.45;;;4.70;99.90;;;;;;5077935;28;20028;-76
2022/01/08 10:36:35;;;;;;;33.33;15.70;;;4.80;99.90;;;;;;5083649;28;20012;-75
2022/01/08 10:39:04;;;;;;;35.55;15.57;;;4.80;99.90;;;;;;5088969;28;20396;-75
2022/01/08 10:41:30;;;;;;;30.50;15.73;;;4.80;99.90;;;;;;5084599;28;20070;-75
2022/01/08 10:44:15;;;;;;;38.67;17.02;;;4.80;99.90;;;;;;5085277;28;20032;-74
2022/01/08 10:46:58;;;;;;;34.00;15.95;;;4.80;99.90;;;;;;5083157;28;20032;-74
2022/01/08 10:49:34;;;;;;;29.55;14.70;;;4.80;99.90;;;;;;5086636;28;20024;-75
2022/01/08 10:52:15;;;;;;;32.80;15.48;;;4.80;99.90;;;;;;5085795;28;20024;-73
2022/01/08 10:54:44;;;;;;;30.58;14.65;;;4.80;99.90;;;;;;5089436;28;20036;-73
2022/01/08 10:57:12;;;;;;;33.53;15.13;;;4.80;99.90;;;;;;5094870;28;20024;-73
2022/01/08 10:59:39;;;;;;;25.20;13.18;;;4.90;99.90;;;;;;5091939;28;20099;-74
2022/01/08 11:02:06;;;;;;;29.45;12.98;;;4.90;99.90;;;;;;5081201;28;20564;-74
2022/01/08 11:04:36;;;;;;;27.85;13.77;;;4.90;99.90;;;;;;5072536;28;20521;-75
2022/01/08 11:07:31;;;;;;;23.35;11.55;;;4.90;99.90;;;;;;5083013;28;20637;-75
2022/01/08 11:10:05;;;;;;;22.38;11.27;;;4.90;99.90;;;;;;5084395;28;20047;-76
2022/01/08 11:12:36;;;;;;;27.23;12.23;;;5.00;99.90;;;;;;5077048;28;20044;-75
2022/01/08 11:17:48;;;;;;;25.00;11.13;;;5.10;99.90;;;;;;5087622;28;20032;-77
2022/01/08 11:20:18;;;;;;;18.15;9.70;;;5.10;99.90;;;;;;5082482;28;20024;-76
2022/01/08 11:22:49;;;;;;;20.58;10.68;;;5.10;99.90;;;;;;5087041;28;20040;-75
2022/01/08 11:25:23;;;;;;;20.42;9.52;;;5.10;99.90;;;;;;5077076;28;20032;-77
2022/01/08 11:27:59;;;;;;;16.33;8.80;;;5.10;99.90;;;;;;5080148;28;20028;-78
2022/01/08 11:30:30;;;;;;;16.90;9.02;;;5.10;99.90;;;;;;5078709;28;20524;-77
2022/01/08 11:33:05;;;;;;;20.25;8.88;;;5.30;99.90;;;;;;5083483;28;20027;-76
2022/01/08 11:35:32;;;;;;;19.52;9.18;;;5.30;99.90;;;;;;5089542;28;20027;-77
2022/01/08 11:38:02;;;;;;;13.77;8.40;;;5.30;99.90;;;;;;5084526;28;20099;-77
2022/01/08 11:40:30;;;;;;;15.07;8.02;;;5.40;99.90;;;;;;5077788;28;20028;-78
2022/01/08 11:42:59;;;;;;;17.13;7.55;;;5.40;99.90;;;;;;5070981;28;20060;-77
2022/01/08 11:45:31;;;;;;;13.18;7.35;;;5.40;99.90;;;;;;5072538;28;20100;-78
2022/01/08 11:47:59;;;;;;;15.07;6.60;;;5.40;99.90;;;;;;5072166;28;20037;-77
2022/01/08 11:50:27;;;;;;;14.77;6.57;;;5.40;99.90;;;;;;5082699;28;20024;-76
2022/01/08 11:53:12;;;;;;;14.25;7.18;;;5.40;99.90;;;;;;5092897;28;20557;-78
2022/01/08 11:55:39;;;;;;;11.30;6.32;;;5.50;99.90;;;;;;5085907;28;20089;-77
2022/01/08 11:58:16;;;;;;;14.25;6.85;;;5.50;99.90;;;;;;5074007;28;20029;-76
2022/01/08 12:00:56;;;;;;;9.55;5.78;;;5.50;99.90;;;;;;5073416;28;20032;-77
2022/01/08 12:03:40;;;;;;;10.93;5.65;;;5.50;99.90;;;;;;5073117;28;20019;-76
2022/01/08 12:06:21;;;;;;;13.68;5.53;;;5.60;99.90;;;;;;5073332;28;20032;-76
2022/01/08 12:09:08;;;;;;;12.18;5.90;;;5.60;99.90;;;;;;5073921;28;20377;-76
2022/01/08 12:12:04;;;;;;;9.80;4.72;;;5.60;99.90;;;;;;5088786;28;20026;-75
2022/01/08 12:14:44;;;;;;;8.40;4.72;;;5.60;99.90;;;;;;5073479;28;20033;-75
2022/01/08 12:17:13;;;;;;;9.07;4.78;;;5.60;99.90;;;;;;5073634;28;20388;-76
2022/01/08 12:19:51;;;;;;;9.23;5.32;;;5.70;99.90;;;;;;5074938;28;20047;-75
2022/01/08 12:22:16;;;;;;;13.38;4.88;;;5.70;99.90;;;;;;5080675;28;20039;-75
2022/01/08 12:24:49;;;;;;;9.32;4.65;;;5.70;99.90;;;;;;5093744;28;20464;-75
2022/01/08 12:27:33;;;;;;;16.77;4.55;;;5.80;99.90;;;;;;5081108;28;20412;-76
2022/01/08 12:30:01;;;;;;;9.35;4.63;;;5.80;99.90;;;;;;5071546;28;20040;-75
2022/01/08 12:32:37;;;;;;;6.97;3.42;;;5.80;99.90;;;;;;5072923;28;20073;-75
2022/01/08 12:35:14;;;;;;;10.02;3.10;;;5.80;99.90;;;;;;5072672;28;20098;-76
2022/01/08 12:37:44;;;;;;;9.05;3.63;;;5.90;99.90;;;;;;5072518;28;20119;-77
2022/01/08 12:40:30;;;;;;;6.45;3.80;;;5.80;99.90;;;;;;5082672;28;20024;-76
2022/01/08 12:42:56;;;;;;;11.07;3.95;;;5.80;99.90;;;;;;5085140;28;20051;-78
2022/01/08 12:45:33;;;;;;;14.20;3.67;;;5.80;99.90;;;;;;5092840;28;20032;-74
2022/01/08 12:48:07;;;;;;;11.10;4.53;;;5.80;99.90;;;;;;5089005;28;20085;-77
2022/01/08 12:50:38;;;;;;;10.20;4.65;;;5.90;99.90;;;;;;5084980;28;20028;-76
2022/01/08 12:53:03;;;;;;;10.05;3.53;;;5.80;99.90;;;;;;5092888;28;20028;-77
2022/01/08 12:55:38;;;;;;;8.90;4.60;;;5.70;99.90;;;;;;5074750;28;20372;-76
2022/01/08 12:58:15;;;;;;;6.75;4.40;;;5.80;99.90;;;;;;5092929;28;20039;-80
2022/01/08 13:00:56;;;;;;;11.18;4.18;;;5.70;99.90;;;;;;5093055;28;20055;-78
2022/01/08 13:03:53;;;;;;;8.05;3.83;;;5.70;99.90;;;;;;5071152;28;20032;-80
2022/01/08 13:06:20;;;;;;;11.02;4.57;;;5.70;99.90;;;;;;5072878;28;20468;-80
2022/01/08 13:08:48;;;;;;;9.30;4.57;;;5.60;99.90;;;;;;5075305;28;20043;-78
2022/01/08 13:11:17;;;;;;;8.45;4.20;;;5.60;99.90;;;;;;5074763;28;20027;-79
2022/01/08 13:13:57;;;;;;;10.93;4.13;;;5.50;99.90;;;;;;5072319;28;20111;-79